createdAt,value
2022-11-18T00:04:56.708Z,3.07
2022-11-18T00:09:59.581Z,3.31
2022-11-18T00:15:03.992Z,3.37
2022-11-18T00:20:07.752Z,3.38
2022-11-18T00:25:11.045Z,3.34
2022-11-18T00:30:15.327Z,3.35
2022-11-18T00:35:18.196Z,3.25
2022-11-18T00:40:21.053Z,3.23
2022-11-18T00:45:25.306Z,3.35
2022-11-18T00:50:28.204Z,3.44
2022-11-18T00:55:31.820Z,3.41
2022-11-18T01:00:36.133Z,3.33
2022-11-18T01:05:39.390Z,3.41
2022-11-18T01:10:42.545Z,3.47
2022-11-18T01:15:48.579Z,3.44
2022-11-18T01:20:51.638Z,3.48
2022-11-18T01:25:54.651Z,3.47
2022-11-18T01:31:04.757Z,3.43
2022-11-18T01:36:16.758Z,3.34
2022-11-18T01:41:21.336Z,3.28
2022-11-18T01:46:27.291Z,3.27
2022-11-18T01:51:34.665Z,3.16
2022-11-18T01:56:42.723Z,3.20
2022-11-18T02:01:47.484Z,3.27
2022-11-18T02:06:50.976Z,3.36
2022-11-18T02:11:54.930Z,3.34
2022-11-18T02:17:11.078Z,3.28
2022-11-18T02:22:29.729Z,3.29
2022-11-18T02:27:58.466Z,3.31
2022-11-18T02:33:08.391Z,3.30
2022-11-18T02:38:16.758Z,3.34
2022-11-18T02:43:25.712Z,3.42
2022-11-18T02:48:33.793Z,3.43
2022-11-18T02:53:39.572Z,2.97
2022-11-18T02:58:42.427Z,3.10
2022-11-18T03:03:46.739Z,3.01
2022-11-18T03:08:56.648Z,2.91
2022-11-18T03:14:10.331Z,3.01
2022-11-18T03:19:20.803Z,3.17
2022-11-18T03:24:30.633Z,3.29
2022-11-18T03:29:37.129Z,3.30
2022-11-18T03:34:46.855Z,2.91
2022-11-18T03:39:53.748Z,3.01
2022-11-18T03:45:01.692Z,3.09
2022-11-18T03:50:13.821Z,3.23
2022-11-18T03:55:20.706Z,3.13
2022-11-18T04:00:24.697Z,3.26
2022-11-18T04:05:33.425Z,2.97
2022-11-18T04:10:43.079Z,2.81
2022-11-18T04:15:46.063Z,3.03
2022-11-18T04:20:50.498Z,3.18
2022-11-18T04:25:53.420Z,2.94
2022-11-18T04:30:56.322Z,3.11
2022-11-18T04:36:00.548Z,2.98
2022-11-18T04:41:03.413Z,3.02
2022-11-18T04:46:06.497Z,3.23
2022-11-18T04:51:10.797Z,3.15
2022-11-18T04:56:13.807Z,3.13
2022-11-18T05:01:16.801Z,3.20
2022-11-18T05:06:21.165Z,3.09
2022-11-18T05:11:41.526Z,2.94
2022-11-18T05:16:44.695Z,3.05
2022-11-18T05:21:48.997Z,3.05
2022-11-18T05:26:52.738Z,3.22
2022-11-18T05:31:55.653Z,3.07
2022-11-18T05:36:59.910Z,2.68
2022-11-18T05:42:20.618Z,2.10
2022-11-18T05:47:24.954Z,2.53
2022-11-18T05:52:29.492Z,2.50
2022-11-18T05:57:32.372Z,2.24
2022-11-18T06:02:35.431Z,2.31
2022-11-18T06:07:42.847Z,1.96
2022-11-18T06:12:48.451Z,1.99
2022-11-18T06:17:56.324Z,1.80
2022-11-18T06:23:01.858Z,1.84
2022-11-18T06:28:05.138Z,1.97
2022-11-18T06:33:08.801Z,1.78
2022-11-18T06:38:13.272Z,1.81
2022-11-18T06:43:33.518Z,1.83
2022-11-18T06:48:36.424Z,1.94
2022-11-18T06:53:40.922Z,1.73
2022-11-18T06:58:43.800Z,1.72
2022-11-18T07:03:47.824Z,1.39
2022-11-18T07:08:52.875Z,1.23
2022-11-18T07:13:56.012Z,1.32
2022-11-18T07:18:59.024Z,1.32
2022-11-18T07:24:07.940Z,1.09
2022-11-18T07:29:11.674Z,0.67
2022-11-18T07:34:14.699Z,0.75
2022-11-18T07:39:19.181Z,0.59
2022-11-18T07:44:22.382Z,0.70
2022-11-18T07:49:25.319Z,0.56
2022-11-18T07:54:29.595Z,0.24
2022-11-18T07:59:32.468Z,0.47
2022-11-18T08:04:37.883Z,0.86
2022-11-18T08:09:42.227Z,0.74
2022-11-18T08:14:45.106Z,0.56
2022-11-18T08:19:47.955Z,0.70
2022-11-18T08:24:52.213Z,0.26
2022-11-18T08:29:55.102Z,0.36
2022-11-18T08:34:57.974Z,0.51
2022-11-18T08:40:02.278Z,0.22
2022-11-18T08:45:08.342Z,0.37
2022-11-18T08:50:12.626Z,0.21
2022-11-18T08:55:17.202Z,0.42
2022-11-18T09:00:20.987Z,0.47
2022-11-18T09:05:23.902Z,0.20
2022-11-18T09:10:28.635Z,0.03
2022-11-18T09:15:31.918Z,-0.18
2022-11-18T09:20:34.795Z,0.17
2022-11-18T09:25:39.181Z,0.37
2022-11-18T09:30:42.195Z,0.25
2022-11-18T09:35:45.582Z,0.18
2022-11-18T09:41:05.231Z,-0.22
2022-11-18T09:46:26.419Z,-0.52
2022-11-18T09:51:33.771Z,-0.43
2022-11-18T09:56:38.106Z,-0.43
2022-11-18T10:01:41.118Z,-0.54
2022-11-18T10:06:45.573Z,-0.52
2022-11-18T10:12:03.563Z,-0.97
2022-11-18T10:17:17.444Z,-1.13
2022-11-18T10:22:24.789Z,-1.01
2022-11-18T10:27:39.341Z,-1.26
2022-11-18T10:32:55.577Z,-1.30
2022-11-18T10:38:08.617Z,-0.95
2022-11-18T10:43:14.476Z,-1.10
2022-11-18T10:48:20.165Z,-0.91
2022-11-18T10:53:34.019Z,-1.29
2022-11-18T10:58:42.705Z,-0.82
2022-11-18T11:03:57.909Z,-1.40
2022-11-18T11:09:07.404Z,-1.54
2022-11-18T11:14:20.838Z,-1.05
2022-11-18T11:19:26.555Z,-1.04
2022-11-18T11:24:29.475Z,-1.48
2022-11-18T11:29:52.283Z,-1.69
2022-11-18T11:35:03.906Z,-1.62
2022-11-18T11:40:34.744Z,-1.45
2022-11-18T11:45:48.474Z,-1.76
2022-11-18T11:51:03.072Z,-1.66
2022-11-18T11:56:23.551Z,-1.52
2022-11-18T12:01:36.545Z,-1.60
2022-11-18T12:06:42.631Z,-1.38
2022-11-18T12:11:52.226Z,-1.07
2022-11-18T12:17:07.998Z,-1.46
2022-11-18T12:22:10.912Z,-1.89
2022-11-18T12:27:16.156Z,-1.72
2022-11-18T12:32:43.318Z,-1.88
2022-11-18T12:37:59.693Z,-2.08
2022-11-18T12:43:20.686Z,-1.86
2022-11-18T12:48:48.599Z,-1.86
2022-11-18T12:53:52.931Z,-1.97
2022-11-18T12:58:57.021Z,-1.87
2022-11-18T13:04:09.673Z,-1.80
2022-11-18T13:09:17.979Z,-2.05
2022-11-18T13:14:42.532Z,-2.08
2022-11-18T13:19:57.775Z,-1.95
2022-11-18T13:25:00.627Z,-2.13
2022-11-18T13:30:06.000Z,-2.52
2022-11-18T13:35:14.787Z,-2.16
2022-11-18T13:40:21.200Z,-2.18
2022-11-18T13:45:27.831Z,-2.19
2022-11-18T13:50:36.432Z,-2.31
2022-11-18T13:55:41.475Z,-2.60
2022-11-18T14:00:44.685Z,-2.61
2022-11-18T14:05:55.940Z,-3.13
2022-11-18T14:10:59.938Z,-3.30
2022-11-18T14:16:05.007Z,-3.25
2022-11-18T14:21:13.739Z,-3.39
2022-11-18T14:26:28.328Z,-3.66
2022-11-18T14:31:32.871Z,-3.69
2022-11-18T14:36:37.132Z,-3.46
2022-11-18T14:41:48.775Z,-3.32
2022-11-18T14:46:55.297Z,-3.37
2022-11-18T14:52:02.535Z,-3.48
2022-11-18T14:57:06.613Z,-3.21
2022-11-18T15:02:15.579Z,-3.10
2022-11-18T15:07:23.800Z,-3.13
2022-11-18T15:12:27.415Z,-3.10
2022-11-18T15:17:30.796Z,-3.54
2022-11-18T15:22:35.526Z,-3.41
2022-11-18T15:27:38.795Z,-3.34
2022-11-18T15:32:41.669Z,-3.22
2022-11-18T15:37:45.919Z,-3.44
2022-11-18T15:42:51.992Z,-3.22
2022-11-18T15:47:55.437Z,-3.41
2022-11-18T15:52:59.840Z,-3.24
2022-11-18T15:58:02.738Z,-3.47
2022-11-18T16:03:05.659Z,-3.38
2022-11-18T16:08:09.955Z,-3.39
2022-11-18T16:13:12.884Z,-3.44
2022-11-18T16:18:17.931Z,-3.37
2022-11-18T16:23:22.215Z,-3.36
2022-11-18T16:28:25.067Z,-3.25
2022-11-18T16:33:27.964Z,-3.54
2022-11-18T16:38:32.191Z,-3.39
2022-11-18T16:43:35.098Z,-3.40
2022-11-18T16:48:38.083Z,-3.66
2022-11-18T16:53:42.331Z,-3.52
2022-11-18T16:58:45.242Z,-3.49
2022-11-18T17:03:48.503Z,-3.47
2022-11-18T17:08:52.819Z,-3.49
2022-11-18T17:13:58.276Z,-3.60
2022-11-18T17:19:03.784Z,-3.78
2022-11-18T17:24:13.952Z,-3.70
2022-11-18T17:29:17.424Z,-3.74
2022-11-18T17:34:21.208Z,-3.46
2022-11-18T17:39:25.753Z,-3.51
2022-11-18T17:44:30.079Z,-3.62
2022-11-18T17:49:33.334Z,-3.90
2022-11-18T17:54:37.730Z,-3.97
2022-11-18T17:59:40.613Z,-4.18
2022-11-18T18:04:43.463Z,-3.85
2022-11-18T18:09:47.863Z,-4.04
2022-11-18T18:14:50.866Z,-4.05
2022-11-18T18:19:53.737Z,-3.73
2022-11-18T18:24:58.168Z,-3.98
2022-11-18T18:30:01.136Z,-3.80
2022-11-18T18:35:04.287Z,-3.68
2022-11-18T18:40:09.916Z,-3.59
2022-11-18T18:45:30.311Z,-4.01
2022-11-18T18:50:33.579Z,-3.87
2022-11-18T18:55:42.004Z,-3.67
2022-11-18T19:00:47.778Z,-3.78
2022-11-18T19:11:30.208Z,-3.80
2022-11-18T19:16:33.313Z,-3.77
2022-11-18T19:21:36.623Z,-3.63
2022-11-18T19:26:41.159Z,-3.83
2022-11-18T19:31:44.107Z,-3.69
2022-11-18T19:36:46.982Z,-3.57
2022-11-18T19:41:51.271Z,-3.71
2022-11-18T19:46:54.232Z,-3.88
2022-11-18T19:51:57.173Z,-3.64
2022-11-18T19:57:03.834Z,-3.98
2022-11-18T20:02:07.489Z,-3.85
2022-11-18T20:07:10.372Z,-3.70
2022-11-18T20:12:14.697Z,-3.65
2022-11-18T20:17:17.562Z,-3.21
2022-11-18T20:22:20.441Z,-3.77
2022-11-18T20:27:24.719Z,-3.75
2022-11-18T20:32:27.660Z,-3.91
2022-11-18T20:37:30.607Z,-3.72
2022-11-18T20:42:52.988Z,-3.77
2022-11-18T20:47:56.247Z,-3.81
2022-11-18T20:52:59.216Z,-3.74
2022-11-18T20:58:03.633Z,-3.63
2022-11-18T21:03:07.106Z,-3.72
2022-11-18T21:08:10.987Z,-3.56
2022-11-18T21:13:32.800Z,-3.41
2022-11-18T21:18:35.708Z,-3.54
2022-11-18T21:23:38.567Z,-3.56
2022-11-18T21:28:42.888Z,-3.56
2022-11-18T21:33:45.800Z,-3.36
2022-11-18T21:38:49.068Z,-3.39
2022-11-18T21:44:08.706Z,-3.58
2022-11-18T21:49:11.670Z,-3.67
2022-11-18T21:54:15.994Z,-3.88
2022-11-18T21:59:22.337Z,-3.96
2022-11-18T22:04:42.905Z,-3.64
2022-11-18T22:09:45.832Z,-3.64
2022-11-18T22:14:51.226Z,-3.70
2022-11-18T22:19:54.176Z,-3.41
2022-11-18T22:24:57.313Z,-3.49
2022-11-18T22:30:01.574Z,-3.46
2022-11-18T22:35:04.750Z,-3.42
2022-11-18T22:40:09.212Z,-3.33
2022-11-18T22:45:13.559Z,-3.42
2022-11-18T22:50:17.078Z,-3.77
2022-11-18T22:55:19.988Z,-3.58
2022-11-18T23:00:24.412Z,-3.59
2022-11-18T23:05:27.298Z,-3.46
2022-11-18T23:10:31.555Z,-3.59
2022-11-18T23:15:35.902Z,-3.53
2022-11-18T23:20:38.933Z,-4.04
2022-11-18T23:25:41.780Z,-3.86
2022-11-18T23:30:46.126Z,-3.70
2022-11-18T23:35:53.185Z,-3.67
2022-11-18T23:40:56.927Z,-3.86
2022-11-18T23:46:01.485Z,-3.82
2022-11-18T23:51:06.331Z,-3.75
2022-11-18T23:56:11.228Z,-3.71
